sensor_id;sensor_type;location;lat;lon;timestamp;pressure;altitude;pressure_sealevel;temperature;humidity
65754;BME280;69207;47.502;18.940;2023-04-15T00:00:52;96986.78;;;5.42;100.00
65754;BME280;69207;47.502;18.940;2023-04-15T00:01:57;96986.47;;;5.47;100.00
65754;BME280;69207;47.502;18.940;2023-04-15T00:03:02;96984.75;;;5.42;100.00
65754;BME280;69207;47.502;18.940;2023-04-15T00:04:05;96986.47;;;5.47;100.00
65754;BME280;69207;47.502;18.940;2023-04-15T00:05:09;96995.06;;;5.44;100.00
65754;BME280;69207;47.502;18.940;2023-04-15T00:06:12;96989.38;;;5.40;100.00
65754;BME280;69207;47.502;18.940;2023-04-15T00:07:16;96989.78;;;5.36;100.00
65754;BME280;69207;47.502;18.940;2023-04-15T00:08:19;96992.09;;;5.40;100.00
65754;BME280;69207;47.502;18.940;2023-04-15T00:09:22;96990.22;;;5.42;100.00
65754;BME280;69207;47.502;18.940;2023-04-15T00:10:26;96990.63;;;5.48;100.00
65754;BME280;69207;47.502;18.940;2023-04-15T00:11:29;96989.34;;;5.49;99.20
65754;BME280;69207;47.502;18.940;2023-04-15T00:12:32;96991.34;;;5.49;97.97
65754;BME280;69207;47.502;18.940;2023-04-15T00:13:35;96997.25;;;5.45;97.43
65754;BME280;69207;47.502;18.940;2023-04-15T00:14:38;96985.34;;;5.41;96.56
65754;BME280;69207;47.502;18.940;2023-04-15T00:15:41;96985.06;;;5.37;95.88
65754;BME280;69207;47.502;18.940;2023-04-15T00:16:45;96986.78;;;5.32;95.32
65754;BME280;69207;47.502;18.940;2023-04-15T00:17:49;96987.78;;;5.17;95.74
65754;BME280;69207;47.502;18.940;2023-04-15T00:18:53;96993.94;;;5.18;96.31
65754;BME280;69207;47.502;18.940;2023-04-15T00:19:57;96986.91;;;5.15;96.17
65754;BME280;69207;47.502;18.940;2023-04-15T00:21:03;96997.50;;;5.20;96.00
65754;BME280;69207;47.502;18.940;2023-04-15T00:22:06;97004.09;;;5.08;96.21
65754;BME280;69207;47.502;18.940;2023-04-15T00:23:09;96992.91;;;5.03;96.82
65754;BME280;69207;47.502;18.940;2023-04-15T00:24:13;96993.09;;;5.06;96.98
65754;BME280;69207;47.502;18.940;2023-04-15T00:25:16;96991.22;;;5.08;96.67
65754;BME280;69207;47.502;18.940;2023-04-15T00:26:19;96992.91;;;5.03;96.57
65754;BME280;69207;47.502;18.940;2023-04-15T00:27:22;96997.63;;;4.93;97.10
65754;BME280;69207;47.502;18.940;2023-04-15T00:28:26;96988.34;;;4.96;97.16
65754;BME280;69207;47.502;18.940;2023-04-15T00:29:30;96997.06;;;5.04;97.01
65754;BME280;69207;47.502;18.940;2023-04-15T00:30:33;96990.66;;;5.00;96.55
65754;BME280;69207;47.502;18.940;2023-04-15T00:31:37;96989.91;;;4.90;96.72
65754;BME280;69207;47.502;18.940;2023-04-15T00:32:40;96986.88;;;4.86;97.20
65754;BME280;69207;47.502;18.940;2023-04-15T00:33:44;96993.34;;;4.90;97.46
65754;BME280;69207;47.502;18.940;2023-04-15T00:34:47;97008.94;;;4.90;97.42
65754;BME280;69207;47.502;18.940;2023-04-15T00:35:51;96995.50;;;5.01;96.84
65754;BME280;69207;47.502;18.940;2023-04-15T00:36:55;96997.22;;;5.07;96.23
65754;BME280;69207;47.502;18.940;2023-04-15T00:37:58;96992.34;;;5.05;95.57
65754;BME280;69207;47.502;18.940;2023-04-15T00:39:01;96993.66;;;4.94;95.99
65754;BME280;69207;47.502;18.940;2023-04-15T00:40:05;96991.91;;;4.89;96.66
65754;BME280;69207;47.502;18.940;2023-04-15T00:41:09;96993.47;;;4.92;96.74
65754;BME280;69207;47.502;18.940;2023-04-15T00:42:13;96992.91;;;4.94;96.88
65754;BME280;69207;47.502;18.940;2023-04-15T00:43:16;96985.75;;;4.98;96.80
65754;BME280;69207;47.502;18.940;2023-04-15T00:44:20;96983.91;;;5.01;96.54
65754;BME280;69207;47.502;18.940;2023-04-15T00:45:23;96978.19;;;5.07;96.30
65754;BME280;69207;47.502;18.940;2023-04-15T00:46:28;96978.75;;;5.15;96.44
65754;BME280;69207;47.502;18.940;2023-04-15T00:47:32;96981.19;;;5.20;96.31
65754;BME280;69207;47.502;18.940;2023-04-15T00:48:44;96982.19;;;5.25;96.30
65754;BME280;69207;47.502;18.940;2023-04-15T00:49:47;96981.47;;;5.24;96.28
65754;BME280;69207;47.502;18.940;2023-04-15T00:50:50;96977.16;;;5.21;96.92
65754;BME280;69207;47.502;18.940;2023-04-15T00:51:53;96976.88;;;5.27;96.84
65754;BME280;69207;47.502;18.940;2023-04-15T00:52:56;96991.22;;;5.18;97.24
65754;BME280;69207;47.502;18.940;2023-04-15T00:53:59;96979.75;;;5.29;97.54
65754;BME280;69207;47.502;18.940;2023-04-15T00:55:03;96986.34;;;5.26;97.59
65754;BME280;69207;47.502;18.940;2023-04-15T00:56:07;96979.59;;;5.27;97.96
65754;BME280;69207;47.502;18.940;2023-04-15T00:57:10;96981.47;;;5.24;98.34
65754;BME280;69207;47.502;18.940;2023-04-15T00:58:13;96977.31;;;5.23;98.81
65754;BME280;69207;47.502;18.940;2023-04-15T00:59:17;96974.16;;;5.37;98.56
65754;BME280;69207;47.502;18.940;2023-04-15T01:00:20;96977.47;;;5.35;98.57
65754;BME280;69207;47.502;18.940;2023-04-15T01:01:25;96984.47;;;5.38;98.57
65754;BME280;69207;47.502;18.940;2023-04-15T01:02:30;96984.03;;;5.32;98.90
65754;BME280;69207;47.502;18.940;2023-04-15T01:03:34;96988.50;;;5.37;98.84
65754;BME280;69207;47.502;18.940;2023-04-15T01:04:38;96988.19;;;5.43;98.89
65754;BME280;69207;47.502;18.940;2023-04-15T01:05:41;96992.06;;;5.49;98.71
65754;BME280;69207;47.502;18.940;2023-04-15T01:06:44;96990.50;;;5.46;98.67
65754;BME280;69207;47.502;18.940;2023-04-15T01:07:47;96997.37;;;5.47;98.69
65754;BME280;69207;47.502;18.940;2023-04-15T01:08:50;96993.09;;;5.44;98.74
65754;BME280;69207;47.502;18.940;2023-04-15T01:09:53;96991.22;;;5.37;99.20
65754;BME280;69207;47.502;18.940;2023-04-15T01:11:00;96988.91;;;5.43;99.56
65754;BME280;69207;47.502;18.940;2023-04-15T01:12:06;96987.19;;;5.48;99.28
65754;BME280;69207;47.502;18.940;2023-04-15T01:13:10;96988.91;;;5.43;99.38
65754;BME280;69207;47.502;18.940;2023-04-15T01:14:13;96992.06;;;5.49;99.43
65754;BME280;69207;47.502;18.940;2023-04-15T01:15:16;96982.75;;;5.52;99.35
65754;BME280;69207;47.502;18.940;2023-04-15T01:16:19;96984.47;;;5.57;98.69
65754;BME280;69207;47.502;18.940;2023-04-15T01:17:23;96983.03;;;5.56;98.78
65754;BME280;69207;47.502;18.940;2023-04-15T01:18:27;96985.59;;;5.64;98.52
65754;BME280;69207;47.502;18.940;2023-04-15T01:19:31;96988.63;;;5.68;98.47
65754;BME280;69207;47.502;18.940;2023-04-15T01:20:34;96984.72;;;5.71;98.16
65754;BME280;69207;47.502;18.940;2023-04-15T01:21:38;96987.62;;;5.64;98.21
65754;BME280;69207;47.502;18.940;2023-04-15T01:22:42;96991.47;;;5.61;98.67
65754;BME280;69207;47.502;18.940;2023-04-15T01:23:47;96989.75;;;5.65;98.58
65754;BME280;69207;47.502;18.940;2023-04-15T01:24:55;96982.44;;;5.68;98.51
65754;BME280;69207;47.502;18.940;2023-04-15T01:26:05;96981.31;;;5.61;98.56
65754;BME280;69207;47.502;18.940;2023-04-15T01:27:10;96987.19;;;5.57;99.08
65754;BME280;69207;47.502;18.940;2023-04-15T01:28:13;96986.03;;;5.70;98.96
65754;BME280;69207;47.502;18.940;2023-04-15T01:29:16;96984.72;;;5.71;98.33
65754;BME280;69207;47.502;18.940;2023-04-15T01:30:20;96983.88;;;5.78;98.53
65754;BME280;69207;47.502;18.940;2023-04-15T01:31:23;96985.00;;;5.75;98.17
65754;BME280;69207;47.502;18.940;2023-04-15T01:32:26;96995.06;;;5.73;98.49
65754;BME280;69207;47.502;18.940;2023-04-15T01:33:29;96989.75;;;5.75;98.39
65754;BME280;69207;47.502;18.940;2023-04-15T01:34:32;96984.00;;;5.80;98.47
65754;BME280;69207;47.502;18.940;2023-04-15T01:35:37;96996.50;;;5.74;98.67
65754;BME280;69207;47.502;18.940;2023-04-15T01:36:40;96987.31;;;5.79;98.63
65754;BME280;69207;47.502;18.940;2023-04-15T01:37:43;96985.84;;;5.88;98.67
65754;BME280;69207;47.502;18.940;2023-04-15T01:38:47;96987.31;;;5.79;98.62
65754;BME280;69207;47.502;18.940;2023-04-15T01:39:50;96993.06;;;5.83;98.85
65754;BME280;69207;47.502;18.940;2023-04-15T01:40:54;96991.88;;;5.86;99.01
65754;BME280;69207;47.502;18.940;2023-04-15T01:41:57;96995.34;;;5.96;98.60
65754;BME280;69207;47.502;18.940;2023-04-15T01:43:01;96992.47;;;5.94;98.63
65754;BME280;69207;47.502;18.940;2023-04-15T01:44:04;96997.34;;;5.96;98.48
65754;BME280;69207;47.502;18.940;2023-04-15T01:45:09;96996.19;;;5.99;98.55
65754;BME280;69207;47.502;18.940;2023-04-15T01:46:12;97001.47;;;6.06;97.84
65754;BME280;69207;47.502;18.940;2023-04-15T01:47:16;97000.63;;;6.04;97.56
65754;BME280;69207;47.502;18.940;2023-04-15T01:48:19;97000.06;;;6.05;97.66
65754;BME280;69207;47.502;18.940;2023-04-15T01:49:22;96997.75;;;6.02;97.69
65754;BME280;69207;47.502;18.940;2023-04-15T01:50:26;97001.59;;;6.08;97.54
65754;BME280;69207;47.502;18.940;2023-04-15T01:51:29;96999.31;;;6.05;97.50
65754;BME280;69207;47.502;18.940;2023-04-15T01:52:33;97004.34;;;5.99;97.53
65754;BME280;69207;47.502;18.940;2023-04-15T01:53:36;97000.06;;;5.96;98.00
65754;BME280;69207;47.502;18.940;2023-04-15T01:54:39;96997.34;;;5.96;98.23
65754;BME280;69207;47.502;18.940;2023-04-15T01:55:42;97010.09;;;6.03;98.30
65754;BME280;69207;47.502;18.940;2023-04-15T01:56:46;97000.63;;;6.04;98.43
65754;BME280;69207;47.502;18.940;2023-04-15T01:57:49;97002.19;;;6.07;98.02
65754;BME280;69207;47.502;18.940;2023-04-15T01:58:52;97003.31;;;6.14;97.92
65754;BME280;69207;47.502;18.940;2023-04-15T01:59:55;97002.91;;;6.07;97.85
65754;BME280;69207;47.502;18.940;2023-04-15T02:00:58;97005.34;;;6.03;98.34
65754;BME280;69207;47.502;18.940;2023-04-15T02:02:02;97000.28;;;6.19;97.78
65754;BME280;69207;47.502;18.940;2023-04-15T02:03:06;97000.47;;;6.12;97.48
65754;BME280;69207;47.502;18.940;2023-04-15T02:04:09;97001.06;;;6.00;97.99
65754;BME280;69207;47.502;18.940;2023-04-15T02:05:18;97005.94;;;6.02;98.39
65754;BME280;69207;47.502;18.940;2023-04-15T02:06:21;97010.53;;;5.99;98.73
65754;BME280;69207;47.502;18.940;2023-04-15T02:07:24;96999.34;;;5.95;99.20
65754;BME280;69207;47.502;18.940;2023-04-15T02:08:27;97004.91;;;6.07;99.10
65754;BME280;69207;47.502;18.940;2023-04-15T02:09:31;97010.50;;;6.09;98.81
65754;BME280;69207;47.502;18.940;2023-04-15T02:10:34;97008.22;;;6.05;98.81
65754;BME280;69207;47.502;18.940;2023-04-15T02:11:37;97005.34;;;6.13;98.75
65754;BME280;69207;47.502;18.940;2023-04-15T02:12:41;97000.47;;;6.12;98.54
65754;BME280;69207;47.502;18.940;2023-04-15T02:13:44;97005.75;;;6.09;98.73
65754;BME280;69207;47.502;18.940;2023-04-15T02:14:47;97002.88;;;6.17;98.60
65754;BME280;69207;47.502;18.940;2023-04-15T02:15:50;97000.69;;;6.25;98.33
65754;BME280;69207;47.502;18.940;2023-04-15T02:16:55;97002.84;;;6.27;97.70
65754;BME280;69207;47.502;18.940;2023-04-15T02:17:58;97002.41;;;6.30;97.68
65754;BME280;69207;47.502;18.940;2023-04-15T02:19:03;96998.97;;;6.30;97.42
65754;BME280;69207;47.502;18.940;2023-04-15T02:20:07;97000.28;;;6.19;97.92
65754;BME280;69207;47.502;18.940;2023-04-15T02:21:10;97003.44;;;6.16;98.15
65754;BME280;69207;47.502;18.940;2023-04-15T02:22:13;97002.59;;;6.13;98.52
65754;BME280;69207;47.502;18.940;2023-04-15T02:23:20;97006.75;;;6.24;98.55
65754;BME280;69207;47.502;18.940;2023-04-15T02:24:23;97000.84;;;6.27;97.87
65754;BME280;69207;47.502;18.940;2023-04-15T02:25:26;97006.88;;;6.16;98.21
65754;BME280;69207;47.502;18.940;2023-04-15T02:26:29;97002.31;;;6.09;98.68
65754;BME280;69207;47.502;18.940;2023-04-15T02:27:35;97003.03;;;6.09;99.04
65754;BME280;69207;47.502;18.940;2023-04-15T02:28:38;97006.06;;;6.04;99.19
65754;BME280;69207;47.502;18.940;2023-04-15T02:29:42;97014.09;;;6.12;99.17
65754;BME280;69207;47.502;18.940;2023-04-15T02:30:47;97001.59;;;6.08;99.01
65754;BME280;69207;47.502;18.940;2023-04-15T02:31:52;97009.62;;;6.16;98.98
65754;BME280;69207;47.502;18.940;2023-04-15T02:32:55;97004.84;;;6.26;98.55
65754;BME280;69207;47.502;18.940;2023-04-15T02:33:59;97006.03;;;6.23;98.15
65754;BME280;69207;47.502;18.940;2023-04-15T02:35:06;97005.47;;;6.15;98.35
65754;BME280;69207;47.502;18.940;2023-04-15T02:36:10;97005.75;;;6.19;98.69
65754;BME280;69207;47.502;18.940;2023-04-15T02:37:14;97010.06;;;6.13;98.54
65754;BME280;69207;47.502;18.940;2023-04-15T02:38:17;97003.91;;;6.12;98.93
65754;BME280;69207;47.502;18.940;2023-04-15T02:39:20;97005.03;;;6.19;98.60
65754;BME280;69207;47.502;18.940;2023-04-15T02:40:23;96998.16;;;6.18;98.78
65754;BME280;69207;47.502;18.940;2023-04-15T02:41:27;97007.88;;;6.21;98.64
65754;BME280;69207;47.502;18.940;2023-04-15T02:42:31;96994.12;;;6.19;98.54
65754;BME280;69207;47.502;18.940;2023-04-15T02:43:34;97005.22;;;6.11;98.58
65754;BME280;69207;47.502;18.940;2023-04-15T02:44:38;96999.47;;;6.07;99.09
65754;BME280;69207;47.502;18.940;2023-04-15T02:45:42;97004.34;;;5.99;99.28
65754;BME280;69207;47.502;18.940;2023-04-15T02:46:45;97009.25;;;6.00;99.55
65754;BME280;69207;47.502;18.940;2023-04-15T02:47:53;97003.03;;;6.09;99.29
65754;BME280;69207;47.502;18.940;2023-04-15T02:48:56;97003.91;;;6.02;99.18
65754;BME280;69207;47.502;18.940;2023-04-15T02:50:02;97007.34;;;6.13;98.72
65754;BME280;69207;47.502;18.940;2023-04-15T02:51:17;97004.91;;;6.07;98.48
65754;BME280;69207;47.502;18.940;2023-04-15T02:52:21;96998.75;;;6.06;98.93
65754;BME280;69207;47.502;18.940;2023-04-15T02:53:24;97004.81;;;5.95;99.12
65754;BME280;69207;47.502;18.940;2023-04-15T02:54:28;97008.69;;;5.92;99.52
65754;BME280;69207;47.502;18.940;2023-04-15T02:55:31;97004.91;;;6.07;99.63
65754;BME280;69207;47.502;18.940;2023-04-15T02:56:34;97006.47;;;6.10;98.67
65754;BME280;69207;47.502;18.940;2023-04-15T02:57:37;97005.50;;;6.05;98.79
65754;BME280;69207;47.502;18.940;2023-04-15T02:58:43;97006.78;;;6.04;99.02
65754;BME280;69207;47.502;18.940;2023-04-15T02:59:52;97007.50;;;6.05;98.85
65754;BME280;69207;47.502;18.940;2023-04-15T03:00:55;97008.66;;;6.02;99.02
65754;BME280;69207;47.502;18.940;2023-04-15T03:01:58;97006.78;;;6.04;99.35
65754;BME280;69207;47.502;18.940;2023-04-15T03:03:04;97006.22;;;6.06;99.12
65754;BME280;69207;47.502;18.940;2023-04-15T03:04:08;97013.81;;;5.98;99.25
65754;BME280;69207;47.502;18.940;2023-04-15T03:05:13;97004.94;;;5.97;99.62
65754;BME280;69207;47.502;18.940;2023-04-15T03:06:16;97012.69;;;5.91;99.88
65754;BME280;69207;47.502;18.940;2023-04-15T03:07:19;97008.94;;;5.87;100.00
65754;BME280;69207;47.502;18.940;2023-04-15T03:08:22;97005.53;;;5.96;100.00
65754;BME280;69207;47.502;18.940;2023-04-15T03:09:25;97010.09;;;6.03;99.84
65754;BME280;69207;47.502;18.940;2023-04-15T03:10:29;96999.63;;;5.99;99.42
65754;BME280;69207;47.502;18.940;2023-04-15T03:11:32;97006.66;;;6.02;99.52
65754;BME280;69207;47.502;18.940;2023-04-15T03:12:37;97003.34;;;6.04;99.24
65754;BME280;69207;47.502;18.940;2023-04-15T03:13:41;97003.78;;;6.00;99.16
65754;BME280;69207;47.502;18.940;2023-04-15T03:14:44;97002.78;;;6.05;99.16
65754;BME280;69207;47.502;18.940;2023-04-15T03:15:47;97006.25;;;5.96;99.25
65754;BME280;69207;47.502;18.940;2023-04-15T03:16:50;97001.78;;;5.91;99.65
65754;BME280;69207;47.502;18.940;2023-04-15T03:17:54;96995.91;;;5.85;100.00
65754;BME280;69207;47.502;18.940;2023-04-15T03:18:58;97007.94;;;5.82;100.00
65754;BME280;69207;47.502;18.940;2023-04-15T03:20:02;97006.94;;;5.87;100.00
65754;BME280;69207;47.502;18.940;2023-04-15T03:21:06;97002.34;;;5.99;100.00
65754;BME280;69207;47.502;18.940;2023-04-15T03:22:10;97009.09;;;5.89;99.99
65754;BME280;69207;47.502;18.940;2023-04-15T03:23:13;97002.06;;;5.86;100.00
65754;BME280;69207;47.502;18.940;2023-04-15T03:24:16;97005.81;;;5.80;100.00
65754;BME280;69207;47.502;18.940;2023-04-15T03:25:19;97006.22;;;5.87;100.00
65754;BME280;69207;47.502;18.940;2023-04-15T03:27:34;97002.91;;;5.88;100.00
65754;BME280;69207;47.502;18.940;2023-04-15T03:28:37;96998.22;;;5.79;100.00
65754;BME280;69207;47.502;18.940;2023-04-15T03:29:40;97006.53;;;5.71;100.00
65754;BME280;69207;47.502;18.940;2023-04-15T03:30:44;96997.50;;;5.78;100.00
65754;BME280;69207;47.502;18.940;2023-04-15T03:31:47;97002.50;;;5.92;100.00
65754;BME280;69207;47.502;18.940;2023-04-15T03:32:50;96994.72;;;5.88;100.00
65754;BME280;69207;47.502;18.940;2023-04-15T03:33:53;97011.13;;;5.78;100.00
65754;BME280;69207;47.502;18.940;2023-04-15T03:34:56;97002.53;;;5.72;100.00
65754;BME280;69207;47.502;18.940;2023-04-15T03:35:59;97005.50;;;5.86;100.00
65754;BME280;69207;47.502;18.940;2023-04-15T03:37:02;97004.50;;;5.81;100.00
65754;BME280;69207;47.502;18.940;2023-04-15T03:38:05;97006.81;;;5.85;100.00
65754;BME280;69207;47.502;18.940;2023-04-15T03:39:08;96993.91;;;5.86;100.00
65754;BME280;69207;47.502;18.940;2023-04-15T03:40:11;97007.94;;;5.82;100.00
65754;BME280;69207;47.502;18.940;2023-04-15T03:41:14;96996.75;;;5.88;100.00
65754;BME280;69207;47.502;18.940;2023-04-15T03:42:17;97003.06;;;5.90;100.00
65754;BME280;69207;47.502;18.940;2023-04-15T03:43:20;97010.25;;;5.76;100.00
65754;BME280;69207;47.502;18.940;2023-04-15T03:44:25;97013.44;;;5.72;100.00
65754;BME280;69207;47.502;18.940;2023-04-15T03:45:28;97003.78;;;5.81;100.00
65754;BME280;69207;47.502;18.940;2023-04-15T03:46:31;97002.66;;;5.84;100.00
65754;BME280;69207;47.502;18.940;2023-04-15T03:47:35;96995.50;;;5.79;100.00
65754;BME280;69207;47.502;18.940;2023-04-15T03:48:38;96991.44;;;5.90;100.00
65754;BME280;69207;47.502;18.940;2023-04-15T03:49:41;96997.03;;;5.82;100.00
65754;BME280;69207;47.502;18.940;2023-04-15T03:50:44;97006.53;;;5.81;100.00
65754;BME280;69207;47.502;18.940;2023-04-15T03:51:47;97000.06;;;5.76;100.00
65754;BME280;69207;47.502;18.940;2023-04-15T03:52:50;96992.59;;;5.77;100.00
65754;BME280;69207;47.502;18.940;2023-04-15T03:53:53;96989.28;;;5.88;100.00
65754;BME280;69207;47.502;18.940;2023-04-15T03:54:56;97000.47;;;5.82;100.00
65754;BME280;69207;47.502;18.940;2023-04-15T03:55:59;96990.59;;;5.87;100.00
65754;BME280;69207;47.502;18.940;2023-04-15T03:57:03;96995.34;;;5.96;100.00
65754;BME280;69207;47.502;18.940;2023-04-15T03:58:06;96990.31;;;5.93;100.00
65754;BME280;69207;47.502;18.940;2023-04-15T03:59:09;96986.28;;;6.03;100.00
65754;BME280;69207;47.502;18.940;2023-04-15T04:00:13;96988.72;;;5.99;100.00
65754;BME280;69207;47.502;18.940;2023-04-15T04:01:16;96988.28;;;5.93;100.00
65754;BME280;69207;47.502;18.940;2023-04-15T04:02:19;96992.16;;;5.90;100.00
65754;BME280;69207;47.502;18.940;2023-04-15T04:03:22;96987.59;;;5.93;100.00
65754;BME280;69207;47.502;18.940;2023-04-15T04:04:25;96990.72;;;5.99;100.00
65754;BME280;69207;47.502;18.940;2023-04-15T04:05:29;96989.03;;;5.84;100.00
65754;BME280;69207;47.502;18.940;2023-04-15T04:06:32;97001.78;;;5.81;100.00
65754;BME280;69207;47.502;18.940;2023-04-15T04:07:35;96993.19;;;5.85;100.00
65754;BME280;69207;47.502;18.940;2023-04-15T04:08:38;96989.31;;;5.78;100.00
65754;BME280;69207;47.502;18.940;2023-04-15T04:09:41;96993.19;;;5.75;100.00
65754;BME280;69207;47.502;18.940;2023-04-15T04:10:44;96986.59;;;5.78;100.00
65754;BME280;69207;47.502;18.940;2023-04-15T04:11:47;96988.31;;;5.74;100.00
65754;BME280;69207;47.502;18.940;2023-04-15T04:12:50;96988.91;;;5.72;100.00
65754;BME280;69207;47.502;18.940;2023-04-15T04:13:53;96989.87;;;5.77;100.00
65754;BME280;69207;47.502;18.940;2023-04-15T04:14:56;96983.56;;;5.84;100.00
65754;BME280;69207;47.502;18.940;2023-04-15T04:15:59;96985.16;;;5.77;100.00
65754;BME280;69207;47.502;18.940;2023-04-15T04:17:03;96983.16;;;5.78;100.00
65754;BME280;69207;47.502;18.940;2023-04-15T04:18:06;96988.31;;;5.83;100.00
65754;BME280;69207;47.502;18.940;2023-04-15T04:19:09;96992.88;;;6.00;100.00
65754;BME280;69207;47.502;18.940;2023-04-15T04:20:12;96987.56;;;6.02;100.00
65754;BME280;69207;47.502;18.940;2023-04-15T04:21:15;96987.53;;;6.12;100.00
65754;BME280;69207;47.502;18.940;2023-04-15T04:22:21;96985.97;;;5.99;100.00
65754;BME280;69207;47.502;18.940;2023-04-15T04:23:25;96987.44;;;6.00;100.00
65754;BME280;69207;47.502;18.940;2023-04-15T04:24:28;96993.59;;;6.01;100.00
65754;BME280;69207;47.502;18.940;2023-04-15T04:25:31;96997.47;;;5.98;100.00
65754;BME280;69207;47.502;18.940;2023-04-15T04:26:34;97003.50;;;6.06;100.00
65754;BME280;69207;47.502;18.940;2023-04-15T04:27:38;96999.06;;;6.01;100.00
65754;BME280;69207;47.502;18.940;2023-04-15T04:28:41;96989.16;;;6.05;100.00
65754;BME280;69207;47.502;18.940;2023-04-15T04:29:44;96993.31;;;5.97;100.00
65754;BME280;69207;47.502;18.940;2023-04-15T04:30:49;96990.31;;;5.93;100.00
65754;BME280;69207;47.502;18.940;2023-04-15T04:31:52;96988.28;;;5.93;100.00
65754;BME280;69207;47.502;18.940;2023-04-15T04:32:56;96991.91;;;5.96;100.00
65754;BME280;69207;47.502;18.940;2023-04-15T04:33:59;96995.75;;;5.93;100.00
65754;BME280;69207;47.502;18.940;2023-04-15T04:35:03;96997.19;;;5.94;100.00
65754;BME280;69207;47.502;18.940;2023-04-15T04:36:06;96996.75;;;5.97;100.00
65754;BME280;69207;47.502;18.940;2023-04-15T04:37:10;97001.62;;;5.99;100.00
65754;BME280;69207;47.502;18.940;2023-04-15T04:38:13;97004.34;;;5.99;100.00
65754;BME280;69207;47.502;18.940;2023-04-15T04:39:16;97000.06;;;5.96;100.00
65754;BME280;69207;47.502;18.940;2023-04-15T04:40:19;96997.63;;;6.00;100.00
65754;BME280;69207;47.502;18.940;2023-04-15T04:41:22;97002.09;;;5.95;100.00
65754;BME280;69207;47.502;18.940;2023-04-15T04:42:25;97005.94;;;5.92;100.00
65754;BME280;69207;47.502;18.940;2023-04-15T04:43:28;96996.16;;;6.08;100.00
65754;BME280;69207;47.502;18.940;2023-04-15T04:44:31;97005.50;;;6.05;100.00
65754;BME280;69207;47.502;18.940;2023-04-15T04:45:34;97004.50;;;6.01;100.00
65754;BME280;69207;47.502;18.940;2023-04-15T04:46:38;97004.91;;;6.07;100.00
65754;BME280;69207;47.502;18.940;2023-04-15T04:47:41;97005.47;;;6.15;100.00
65754;BME280;69207;47.502;18.940;2023-04-15T04:48:44;96998.84;;;6.18;100.00
65754;BME280;69207;47.502;18.940;2023-04-15T04:49:48;97002.47;;;6.11;100.00
65754;BME280;69207;47.502;18.940;2023-04-15T04:50:51;97000.19;;;6.07;100.00
65754;BME280;69207;47.502;18.940;2023-04-15T04:51:55;97001.72;;;6.20;100.00
65754;BME280;69207;47.502;18.940;2023-04-15T04:52:59;97011.16;;;6.29;100.00
65754;BME280;69207;47.502;18.940;2023-04-15T04:54:03;97003.84;;;6.22;100.00
65754;BME280;69207;47.502;18.940;2023-04-15T04:55:06;97003.41;;;6.25;100.00
65754;BME280;69207;47.502;18.940;2023-04-15T04:56:10;97005.03;;;6.19;100.00
65754;BME280;69207;47.502;18.940;2023-04-15T04:57:13;97001.12;;;6.22;100.00
65754;BME280;69207;47.502;18.940;2023-04-15T04:58:16;97005.03;;;6.19;100.00
65754;BME280;69207;47.502;18.940;2023-04-15T04:59:19;97006.03;;;6.23;100.00
65754;BME280;69207;47.502;18.940;2023-04-15T05:00:22;97004.13;;;6.26;100.00
65754;BME280;69207;47.502;18.940;2023-04-15T05:01:25;97005.63;;;6.17;100.00
65754;BME280;69207;47.502;18.940;2023-04-15T05:02:29;97012.34;;;6.16;100.00
65754;BME280;69207;47.502;18.940;2023-04-15T05:03:32;97002.59;;;6.13;100.00
65754;BME280;69207;47.502;18.940;2023-04-15T05:04:36;97008.91;;;6.16;100.00
65754;BME280;69207;47.502;18.940;2023-04-15T05:05:38;97014.34;;;6.16;100.00
65754;BME280;69207;47.502;18.940;2023-04-15T05:06:42;97010.75;;;6.23;100.00
65754;BME280;69207;47.502;18.940;2023-04-15T05:07:45;97006.03;;;6.23;100.00
65754;BME280;69207;47.502;18.940;2023-04-15T05:08:48;97009.31;;;6.22;100.00
65754;BME280;69207;47.502;18.940;2023-04-15T05:09:52;97015.34;;;6.20;100.00
65754;BME280;69207;47.502;18.940;2023-04-15T05:10:55;97003.53;;;6.37;100.00
65754;BME280;69207;47.502;18.940;2023-04-15T05:11:58;97015.78;;;6.57;100.00
65754;BME280;69207;47.502;18.940;2023-04-15T05:13:01;97016.19;;;6.64;100.00
65754;BME280;69207;47.502;18.940;2023-04-15T05:14:04;97012.66;;;6.51;100.00
65754;BME280;69207;47.502;18.940;2023-04-15T05:15:08;97007.94;;;6.42;100.00
65754;BME280;69207;47.502;18.940;2023-04-15T05:16:10;97009.25;;;6.41;100.00
65754;BME280;69207;47.502;18.940;2023-04-15T05:17:14;97017.56;;;6.43;100.00
65754;BME280;69207;47.502;18.940;2023-04-15T05:18:16;97012.56;;;6.40;100.00
65754;BME280;69207;47.502;18.940;2023-04-15T05:19:20;97014.03;;;6.31;100.00
65754;BME280;69207;47.502;18.940;2023-04-15T05:20:23;97012.72;;;6.32;100.00
65754;BME280;69207;47.502;18.940;2023-04-15T05:21:26;97012.87;;;6.34;100.00
65754;BME280;69207;47.502;18.940;2023-04-15T05:22:29;97010.84;;;6.44;100.00
65754;BME280;69207;47.502;18.940;2023-04-15T05:23:32;97015.56;;;6.44;100.00
65754;BME280;69207;47.502;18.940;2023-04-15T05:24:35;97013.41;;;6.42;100.00
65754;BME280;69207;47.502;18.940;2023-04-15T05:25:39;97022.69;;;6.58;100.00
65754;BME280;69207;47.502;18.940;2023-04-15T05:26:42;97014.63;;;6.60;100.00
65754;BME280;69207;47.502;18.940;2023-04-15T05:27:45;97017.22;;;6.58;100.00
65754;BME280;69207;47.502;18.940;2023-04-15T05:28:48;97013.19;;;6.59;100.00
65754;BME280;69207;47.502;18.940;2023-04-15T05:29:51;97001.56;;;6.59;100.00
65754;BME280;69207;47.502;18.940;2023-04-15T05:30:54;97014.75;;;6.62;100.00
65754;BME280;69207;47.502;18.940;2023-04-15T05:31:58;97017.91;;;6.69;100.00
65754;BME280;69207;47.502;18.940;2023-04-15T05:33:01;97011.41;;;6.74;100.00
65754;BME280;69207;47.502;18.940;2023-04-15T05:34:04;97009.72;;;6.69;100.00
65754;BME280;69207;47.502;18.940;2023-04-15T05:35:07;97017.94;;;6.59;100.00
65754;BME280;69207;47.502;18.940;2023-04-15T05:36:10;97014.94;;;6.55;100.00